createdAt,value
2023-04-18T00:01:10.969Z,66.38
2023-04-18T00:03:50.554Z,67.06
2023-04-18T00:06:31.484Z,67.46
2023-04-18T00:09:11.065Z,67.06
2023-04-18T00:11:50.509Z,67.09
2023-04-18T00:14:35.380Z,67.33
2023-04-18T00:17:15.689Z,66.92
2023-04-18T00:19:54.993Z,66.44
2023-04-18T00:22:34.904Z,66.60
2023-04-18T00:25:16.162Z,66.57
2023-04-18T00:27:55.429Z,66.30
2023-04-18T00:30:39.841Z,66.25
2023-04-18T00:33:19.294Z,66.65
2023-04-18T00:35:58.645Z,66.62
2023-04-18T00:38:38.039Z,66.55
2023-04-18T00:41:17.713Z,66.31
2023-04-18T00:43:57.049Z,66.42
2023-04-18T00:46:41.583Z,66.36
2023-04-18T00:49:21.443Z,66.53
2023-04-18T00:52:01.959Z,66.30
2023-04-18T00:54:41.564Z,66.12
2023-04-18T00:57:21.063Z,66.12
2023-04-18T01:00:00.795Z,66.05
2023-04-18T01:02:48.372Z,66.19
2023-04-18T01:05:28.167Z,66.36
2023-04-18T01:08:07.703Z,66.37
2023-04-18T01:10:47.099Z,66.05
2023-04-18T01:13:28.034Z,66.41
2023-04-18T01:16:07.354Z,66.45
2023-04-18T01:18:51.888Z,66.45
2023-04-18T01:21:32.359Z,66.35
2023-04-18T01:24:22.911Z,65.87
2023-04-18T01:27:04.172Z,66.17
2023-04-18T01:29:43.463Z,66.25
2023-04-18T01:32:23.473Z,66.21
2023-04-18T01:35:02.844Z,66.78
2023-04-18T01:37:42.125Z,66.56
2023-04-18T01:40:26.743Z,66.37
2023-04-18T01:43:06.057Z,66.88
2023-04-18T01:45:45.450Z,66.88
2023-04-18T01:48:24.713Z,67.26
2023-04-18T01:51:04.029Z,67.33
2023-04-18T01:53:43.399Z,67.61
2023-04-18T01:56:27.779Z,67.51
2023-04-18T01:59:07.145Z,67.41
2023-04-18T02:01:46.475Z,67.33
2023-04-18T02:04:25.781Z,68.16
2023-04-18T02:07:05.084Z,68.47
2023-04-18T02:09:44.462Z,69.04
2023-04-18T02:12:28.857Z,69.04
2023-04-18T02:15:08.165Z,69.05
2023-04-18T02:17:47.603Z,69.13
2023-04-18T02:20:27.458Z,68.93
2023-04-18T02:23:06.830Z,68.99
2023-04-18T02:25:46.207Z,69.03
2023-04-18T02:28:30.577Z,69.00
2023-04-18T02:31:15.611Z,69.15
2023-04-18T02:33:54.944Z,69.65
2023-04-18T02:36:34.236Z,69.80
2023-04-18T02:39:13.563Z,69.81
2023-04-18T02:41:52.905Z,69.91
2023-04-18T02:44:37.305Z,70.00
2023-04-18T02:47:16.760Z,70.23
2023-04-18T02:49:56.068Z,70.37
2023-04-18T02:52:35.509Z,70.42
2023-04-18T02:55:15.540Z,70.26
2023-04-18T02:57:54.948Z,70.33
2023-04-18T03:00:39.356Z,70.34
2023-04-18T03:03:18.930Z,70.42
2023-04-18T03:05:58.193Z,70.38
2023-04-18T03:08:37.507Z,70.12
2023-04-18T03:11:16.959Z,70.22
2023-04-18T03:13:56.260Z,70.21
2023-04-18T03:16:40.781Z,70.12
2023-04-18T03:19:20.077Z,69.95
2023-04-18T03:21:59.350Z,70.01
2023-04-18T03:24:38.646Z,70.07
2023-04-18T03:27:18.261Z,70.05
2023-04-18T03:29:57.543Z,70.00
2023-04-18T03:32:43.128Z,69.95
2023-04-18T03:35:22.755Z,69.93
2023-04-18T03:38:02.033Z,70.24
2023-04-18T03:40:41.431Z,70.20
2023-04-18T03:43:20.725Z,70.10
2023-04-18T03:46:00.262Z,70.03
2023-04-18T03:48:44.612Z,70.09
2023-04-18T03:51:24.333Z,69.99
2023-04-18T03:54:03.570Z,69.66
2023-04-18T03:56:43.315Z,69.22
2023-04-18T03:59:22.766Z,69.10
2023-04-18T04:02:02.230Z,69.70
2023-04-18T04:04:46.678Z,69.25
2023-04-18T04:07:26.069Z,68.83
2023-04-18T04:10:05.508Z,68.73
2023-04-18T04:12:44.785Z,68.56
2023-04-18T04:15:24.422Z,68.68
2023-04-18T04:18:03.790Z,68.88
2023-04-18T04:20:48.160Z,68.74
2023-04-18T04:23:28.169Z,68.33
2023-04-18T04:26:09.422Z,68.54
2023-04-18T04:28:49.760Z,68.28
2023-04-18T04:31:29.948Z,68.75
2023-04-18T04:34:10.078Z,68.47
2023-04-18T04:36:55.218Z,68.19
2023-04-18T04:39:34.576Z,67.93
2023-04-18T04:42:14.940Z,67.82
2023-04-18T04:44:54.827Z,67.58
2023-04-18T04:47:34.329Z,67.43
2023-04-18T04:50:16.750Z,67.25
2023-04-18T04:53:01.064Z,66.97
2023-04-18T04:55:42.118Z,67.22
2023-04-18T04:58:21.613Z,67.42
2023-04-18T05:01:00.996Z,67.72
2023-04-18T05:03:40.749Z,67.59
2023-04-18T05:06:23.198Z,67.34
2023-04-18T05:09:07.544Z,67.58
2023-04-18T05:11:46.859Z,67.29
2023-04-18T05:14:26.695Z,67.02
2023-04-18T05:17:06.219Z,67.62
2023-04-18T05:19:47.247Z,67.48
2023-04-18T05:22:26.686Z,67.74
2023-04-18T05:25:11.825Z,67.06
2023-04-18T05:27:51.251Z,67.18
2023-04-18T05:30:30.546Z,67.04
2023-04-18T05:33:09.881Z,67.11
2023-04-18T05:35:49.186Z,66.89
2023-04-18T05:38:32.005Z,67.12
2023-04-18T05:41:16.310Z,67.04
2023-04-18T05:44:04.962Z,67.17
2023-04-18T05:46:44.903Z,67.07
2023-04-18T05:49:24.756Z,66.68
2023-04-18T05:52:04.022Z,66.86
2023-04-18T05:54:43.429Z,67.55
2023-04-18T05:57:27.828Z,67.03
2023-04-18T06:00:10.984Z,66.95
2023-04-18T06:02:50.846Z,67.04
2023-04-18T06:05:30.634Z,66.87
2023-04-18T06:08:10.083Z,66.58
2023-04-18T06:10:49.534Z,66.76
2023-04-18T06:13:33.888Z,66.81
2023-04-18T06:16:14.123Z,66.93
2023-04-18T06:18:53.393Z,66.90
2023-04-18T06:21:32.779Z,66.77
2023-04-18T06:24:12.518Z,66.70
2023-04-18T06:26:52.106Z,66.71
2023-04-18T06:29:37.515Z,66.82
2023-04-18T06:32:17.492Z,66.96
2023-04-18T06:34:56.805Z,66.97
2023-04-18T06:37:36.637Z,66.90
2023-04-18T06:40:19.119Z,66.45
2023-04-18T06:42:58.611Z,66.50
2023-04-18T06:45:43.648Z,66.52
2023-04-18T06:48:23.119Z,66.76
2023-04-18T06:51:02.594Z,66.67
2023-04-18T06:53:41.957Z,66.34
2023-04-18T06:56:21.707Z,66.26
2023-04-18T06:59:01.221Z,66.89
2023-04-18T07:01:47.886Z,66.78
2023-04-18T07:04:27.857Z,66.76
2023-04-18T07:07:07.872Z,67.42
2023-04-18T07:09:47.212Z,67.14
2023-04-18T07:12:26.903Z,67.21
2023-04-18T07:15:06.197Z,67.00
2023-04-18T07:17:50.634Z,67.00
2023-04-18T07:20:30.132Z,67.46
2023-04-18T07:23:11.556Z,67.62
2023-04-18T07:25:50.868Z,67.55
2023-04-18T07:28:30.202Z,66.98
2023-04-18T07:31:12.694Z,67.19
2023-04-18T07:33:57.085Z,66.97
2023-04-18T07:36:36.407Z,67.00
2023-04-18T07:39:16.055Z,67.38
2023-04-18T07:41:55.388Z,67.29
2023-04-18T07:47:22.683Z,67.07
2023-04-18T07:50:07.165Z,66.98
2023-04-18T07:52:48.872Z,66.82
2023-04-18T07:55:28.395Z,66.85
2023-04-18T07:58:07.753Z,66.83
2023-04-18T08:00:47.541Z,66.81
2023-04-18T08:03:28.774Z,67.07
2023-04-18T08:06:13.964Z,66.15
2023-04-18T08:08:53.651Z,66.26
2023-04-18T08:11:33.050Z,65.80
2023-04-18T08:14:12.371Z,64.87
2023-04-18T08:16:51.659Z,65.03
2023-04-18T08:19:30.946Z,65.20
2023-04-18T08:22:19.705Z,64.69
2023-04-18T08:25:05.116Z,64.70
2023-04-18T08:27:44.897Z,64.22
2023-04-18T08:30:24.223Z,64.03
2023-04-18T08:33:03.638Z,63.73
2023-04-18T08:35:43.105Z,63.44
2023-04-18T08:38:27.515Z,64.14
2023-04-18T08:41:06.850Z,63.85
2023-04-18T08:43:46.301Z,63.55
2023-04-18T08:46:25.671Z,63.87
2023-04-18T08:49:05.935Z,64.59
2023-04-18T08:51:48.367Z,63.81
2023-04-18T08:54:34.712Z,63.84
2023-04-18T08:57:17.623Z,63.91
2023-04-18T08:59:57.714Z,64.10
2023-04-18T09:02:45.837Z,64.12
2023-04-18T09:05:27.003Z,63.47
2023-04-18T09:08:06.427Z,63.05
2023-04-18T09:10:51.624Z,63.41
2023-04-18T09:13:48.711Z,62.79
2023-04-18T09:16:28.696Z,62.16
2023-04-18T09:19:19.405Z,61.61
2023-04-18T09:22:06.037Z,61.85
2023-04-18T09:24:45.834Z,61.62
2023-04-18T09:27:31.644Z,61.48
2023-04-18T09:30:11.668Z,61.82
2023-04-18T09:32:51.889Z,62.08
2023-04-18T09:35:32.904Z,61.64
2023-04-18T09:38:13.036Z,60.34
2023-04-18T09:40:52.345Z,60.64
2023-04-18T09:43:36.785Z,59.88
2023-04-18T09:46:18.700Z,60.01
2023-04-18T09:48:58.100Z,59.44
2023-04-18T09:51:39.927Z,59.12
2023-04-18T09:54:23.057Z,58.87
2023-04-18T09:57:04.034Z,58.68
2023-04-18T09:59:55.321Z,58.90
2023-04-18T10:02:40.347Z,59.16
2023-04-18T10:05:21.680Z,58.85
2023-04-18T10:08:02.276Z,59.23
2023-04-18T10:10:41.874Z,58.05
2023-04-18T10:13:21.640Z,57.77
2023-04-18T10:16:06.424Z,57.38
2023-04-18T10:18:45.794Z,57.77
2023-04-18T10:21:25.088Z,57.50
2023-04-18T10:24:04.323Z,57.77
2023-04-18T10:26:54.142Z,56.74
2023-04-18T10:29:56.981Z,56.42
2023-04-18T10:32:41.421Z,56.33
2023-04-18T10:35:20.746Z,55.97
2023-04-18T10:38:06.481Z,55.56
2023-04-18T10:40:45.758Z,55.88
2023-04-18T10:43:25.114Z,55.81
2023-04-18T10:46:30.905Z,55.98
2023-04-18T10:49:28.388Z,56.08
2023-04-18T10:54:59.185Z,55.50
2023-04-18T10:57:48.455Z,55.20
2023-04-18T11:00:31.015Z,55.00
2023-04-18T11:03:10.726Z,54.29
2023-04-18T11:05:55.544Z,54.49
2023-04-18T11:08:35.144Z,53.81
2023-04-18T11:11:14.422Z,53.46
2023-04-18T11:14:03.908Z,53.78
2023-04-18T11:16:43.574Z,53.70
2023-04-18T11:19:26.908Z,54.55
2023-04-18T11:22:12.923Z,54.30
2023-04-18T11:24:52.279Z,54.35
2023-04-18T11:27:33.146Z,54.17
2023-04-18T11:30:14.402Z,54.30
2023-04-18T11:32:53.795Z,54.46
2023-04-18T11:35:33.578Z,53.89
2023-04-18T11:38:19.885Z,54.03
2023-04-18T11:40:59.336Z,54.31
2023-04-18T11:43:38.710Z,54.79
2023-04-18T11:46:18.930Z,54.54
2023-04-18T11:48:58.254Z,54.99
2023-04-18T11:51:45.911Z,54.42
2023-04-18T11:54:49.433Z,53.85
2023-04-18T11:57:33.325Z,51.63
2023-04-18T12:00:15.749Z,51.19
2023-04-18T12:02:57.752Z,51.03
2023-04-18T12:05:38.898Z,49.68
2023-04-18T12:08:20.284Z,51.03
2023-04-18T12:11:04.691Z,51.35
2023-04-18T12:13:43.957Z,49.92
2023-04-18T12:16:23.301Z,50.36
2023-04-18T12:19:07.008Z,50.65
2023-04-18T12:22:04.311Z,50.98
2023-04-18T12:24:44.536Z,51.19
2023-04-18T12:27:28.912Z,51.85
2023-04-18T12:30:08.337Z,52.14
2023-04-18T12:32:47.678Z,51.70
2023-04-18T12:35:28.818Z,51.17
2023-04-18T12:38:09.950Z,52.63
2023-04-18T12:40:49.248Z,51.42
2023-04-18T12:43:33.647Z,51.69
2023-04-18T12:46:13.162Z,51.83
2023-04-18T12:48:52.432Z,50.14
2023-04-18T12:51:32.655Z,50.58
2023-04-18T12:54:12.295Z,50.72
2023-04-18T12:56:52.725Z,52.05
2023-04-18T12:59:37.130Z,50.33
2023-04-18T13:02:16.482Z,48.83
2023-04-18T13:04:55.951Z,49.21
2023-04-18T13:07:35.368Z,46.66
2023-04-18T13:10:15.971Z,46.42
2023-04-18T13:12:57.145Z,46.76
2023-04-18T13:15:41.482Z,46.24
2023-04-18T13:18:20.974Z,46.07
2023-04-18T13:21:00.264Z,46.33
2023-04-18T13:23:39.552Z,46.44
2023-04-18T13:26:18.870Z,46.26
2023-04-18T13:28:58.162Z,43.08
2023-04-18T13:31:42.494Z,41.54
2023-04-18T13:34:21.780Z,40.93
2023-04-18T13:37:01.100Z,40.68
2023-04-18T13:39:41.500Z,39.49
2023-04-18T13:42:20.770Z,40.12
2023-04-18T13:45:01.178Z,40.58
2023-04-18T13:47:45.699Z,40.12
2023-04-18T13:50:25.132Z,39.28
2023-04-18T13:53:04.396Z,39.97
2023-04-18T13:55:43.786Z,41.45
2023-04-18T13:58:23.520Z,42.46
2023-04-18T14:01:02.953Z,43.20
2023-04-18T14:03:48.331Z,43.08
2023-04-18T14:06:27.747Z,44.02
2023-04-18T14:09:07.785Z,44.28
2023-04-18T14:11:47.198Z,44.67
2023-04-18T14:14:27.035Z,43.72
2023-04-18T14:17:06.549Z,44.18
2023-04-18T14:19:52.540Z,44.05
2023-04-18T14:22:31.873Z,43.48
2023-04-18T14:25:11.766Z,43.74
2023-04-18T14:27:57.358Z,43.68
2023-04-18T14:30:36.947Z,44.38
2023-04-18T14:33:16.344Z,43.36
2023-04-18T14:36:00.709Z,43.92
2023-04-18T14:38:40.205Z,44.25
2023-04-18T14:44:40.792Z,38.81
2023-04-18T14:47:20.064Z,40.44
2023-04-18T14:49:59.481Z,40.27
2023-04-18T14:52:38.986Z,41.56
2023-04-18T14:55:18.388Z,42.65
2023-04-18T14:57:57.681Z,43.86
2023-04-18T15:00:42.121Z,43.79
2023-04-18T15:03:21.474Z,42.23
2023-04-18T15:06:00.856Z,39.51
2023-04-18T15:08:40.209Z,41.00
2023-04-18T15:11:19.534Z,42.62
2023-04-18T15:13:58.786Z,43.46
2023-04-18T15:16:43.179Z,44.05
2023-04-18T15:19:22.460Z,44.16
2023-04-18T15:22:01.778Z,45.09
2023-04-18T15:24:41.075Z,46.05
2023-04-18T15:27:20.369Z,46.87
2023-04-18T15:29:59.693Z,46.88
2023-04-18T15:32:44.095Z,47.37
2023-04-18T15:35:23.504Z,47.62
2023-04-18T15:38:02.986Z,47.78
2023-04-18T15:40:44.417Z,47.80
2023-04-18T15:43:23.754Z,48.07
2023-04-18T15:46:03.012Z,48.65
2023-04-18T15:48:47.406Z,47.98
2023-04-18T15:51:27.058Z,47.96
2023-04-18T15:54:06.379Z,48.30
2023-04-18T15:56:45.970Z,48.95
2023-04-18T15:59:25.282Z,49.34
2023-04-18T16:02:04.642Z,49.84
2023-04-18T16:04:49.270Z,50.15
2023-04-18T16:07:28.752Z,50.15
2023-04-18T16:10:09.885Z,50.53
2023-04-18T16:12:49.127Z,50.52
2023-04-18T16:15:28.812Z,50.91
2023-04-18T16:18:08.315Z,51.35
2023-04-18T16:20:53.429Z,51.54
2023-04-18T16:23:33.322Z,51.77
2023-04-18T16:26:13.418Z,52.20
2023-04-18T16:28:52.707Z,52.20
2023-04-18T16:31:32.148Z,52.19
2023-04-18T16:34:11.710Z,52.35
2023-04-18T16:36:56.166Z,53.26
2023-04-18T16:39:37.002Z,53.15
2023-04-18T16:42:16.314Z,52.44
2023-04-18T16:44:55.864Z,52.53
2023-04-18T16:47:35.396Z,52.86
2023-04-18T16:50:15.876Z,52.88
2023-04-18T16:53:00.255Z,53.09
2023-04-18T16:55:39.517Z,53.48
2023-04-18T16:58:18.816Z,53.73
2023-04-18T17:00:58.526Z,54.17
2023-04-18T17:03:38.586Z,54.28
2023-04-18T17:06:18.277Z,54.26
2023-04-18T17:09:04.527Z,54.35
2023-04-18T17:11:43.773Z,55.15
2023-04-18T17:14:23.503Z,55.10
2023-04-18T17:17:02.765Z,55.30
2023-04-18T17:19:42.130Z,55.59
2023-04-18T17:22:21.359Z,55.64
2023-04-18T17:25:05.691Z,55.69
2023-04-18T17:27:46.983Z,56.02
2023-04-18T17:30:26.373Z,56.24
2023-04-18T17:33:05.708Z,56.47
2023-04-18T17:35:48.339Z,56.63
2023-04-18T17:38:27.656Z,56.86
2023-04-18T17:41:12.548Z,56.77
2023-04-18T17:43:52.062Z,57.09
2023-04-18T17:46:31.435Z,57.07
2023-04-18T17:49:11.090Z,57.11
2023-04-18T17:51:50.381Z,57.26
2023-04-18T17:54:29.769Z,57.65
2023-04-18T17:57:14.087Z,57.61
2023-04-18T17:59:53.327Z,58.07
2023-04-18T18:02:32.776Z,58.03
2023-04-18T18:05:12.444Z,58.28
2023-04-18T18:07:54.255Z,58.26
2023-04-18T18:10:33.967Z,58.25
2023-04-18T18:13:18.311Z,57.94
2023-04-18T18:15:59.222Z,58.41
2023-04-18T18:18:38.547Z,58.80
2023-04-18T18:21:17.791Z,58.84
2023-04-18T18:23:57.218Z,59.05
2023-04-18T18:26:37.236Z,59.36
2023-04-18T18:29:21.569Z,59.41
2023-04-18T18:32:00.839Z,59.12
2023-04-18T18:34:40.110Z,59.59
2023-04-18T18:37:19.347Z,59.45
2023-04-18T18:39:58.652Z,59.74
2023-04-18T18:42:38.046Z,59.44
2023-04-18T18:45:22.611Z,59.49
2023-04-18T18:48:01.997Z,60.13
2023-04-18T18:50:43.028Z,60.00
2023-04-18T18:53:22.915Z,60.01
2023-04-18T18:56:02.392Z,60.25
2023-04-18T18:58:42.229Z,60.22
2023-04-18T19:01:26.639Z,60.55
2023-04-18T19:04:06.389Z,60.44
2023-04-18T19:06:45.855Z,60.70
2023-04-18T19:09:25.250Z,60.78
2023-04-18T19:12:05.295Z,60.99
2023-04-18T19:14:44.644Z,60.99
2023-04-18T19:17:29.063Z,61.06
2023-04-18T19:20:08.344Z,60.85
2023-04-18T19:22:47.897Z,60.66
2023-04-18T19:25:27.211Z,60.97
2023-04-18T19:28:07.016Z,61.28
2023-04-18T19:30:47.578Z,61.34
2023-04-18T19:33:32.831Z,61.03
2023-04-18T19:36:12.926Z,61.35
2023-04-18T19:38:52.736Z,61.18
2023-04-18T19:41:32.343Z,61.06
2023-04-18T19:44:12.058Z,61.29
2023-04-18T19:46:51.289Z,61.38
2023-04-18T19:49:35.609Z,61.62
2023-04-18T19:52:14.891Z,61.63
2023-04-18T19:54:54.154Z,61.94
2023-04-18T19:57:34.054Z,61.93
2023-04-18T20:00:15.238Z,61.55
2023-04-18T20:02:55.644Z,61.43
2023-04-18T20:05:40.269Z,61.56
2023-04-18T20:08:19.546Z,62.02
2023-04-18T20:10:59.052Z,61.95
2023-04-18T20:13:38.618Z,61.92
2023-04-18T20:16:18.690Z,62.01
2023-04-18T20:18:57.942Z,61.89
2023-04-18T20:21:42.329Z,61.94
2023-04-18T20:24:22.228Z,62.60
2023-04-18T20:27:01.526Z,62.51
2023-04-18T20:29:40.814Z,62.96
2023-04-18T20:32:20.269Z,62.53
2023-04-18T20:34:59.791Z,62.64
2023-04-18T20:37:44.099Z,62.81
2023-04-18T20:40:23.405Z,62.42
2023-04-18T20:43:04.464Z,62.67
2023-04-18T20:45:43.894Z,62.37
2023-04-18T20:48:23.151Z,62.30
2023-04-18T20:51:02.419Z,62.24
2023-04-18T20:53:46.815Z,61.88
2023-04-18T20:56:26.099Z,61.97
2023-04-18T20:59:05.782Z,61.29
2023-04-18T21:01:45.037Z,61.26
2023-04-18T21:04:24.452Z,61.35
2023-04-18T21:07:03.806Z,61.53
2023-04-18T21:09:48.097Z,61.59
2023-04-18T21:12:27.391Z,61.67
2023-04-18T21:15:06.688Z,61.64
2023-04-18T21:17:45.977Z,61.91
2023-04-18T21:20:25.363Z,62.06
2023-04-18T21:23:04.622Z,61.90
2023-04-18T21:25:49.017Z,62.12
2023-04-18T21:28:28.283Z,62.31
2023-04-18T21:31:07.560Z,62.66
2023-04-18T21:33:46.875Z,62.75
2023-04-18T21:36:26.345Z,62.47
2023-04-18T21:39:07.758Z,62.77
2023-04-18T21:41:52.393Z,62.52
2023-04-18T21:44:31.635Z,62.64
2023-04-18T21:47:10.883Z,62.84
2023-04-18T21:49:50.107Z,63.00
2023-04-18T21:52:29.349Z,62.76
2023-04-18T21:55:08.630Z,62.96
2023-04-18T21:57:52.938Z,63.58
2023-04-18T22:00:32.366Z,63.27
2023-04-18T22:03:12.318Z,63.27
2023-04-18T22:05:53.729Z,63.32
2023-04-18T22:08:33.747Z,63.52
2023-04-18T22:11:14.741Z,63.69
2023-04-18T22:13:59.255Z,63.77
2023-04-18T22:16:39.226Z,63.53
2023-04-18T22:19:18.715Z,63.10
2023-04-18T22:21:58.046Z,63.26
2023-04-18T22:24:37.377Z,63.33
2023-04-18T22:27:16.586Z,63.59
2023-04-18T22:30:00.956Z,63.87
2023-04-18T22:32:40.333Z,63.47
2023-04-18T22:35:19.776Z,63.56
2023-04-18T22:37:59.219Z,63.76
2023-04-18T22:40:38.685Z,63.45
2023-04-18T22:43:23.615Z,63.34
2023-04-18T22:46:08.006Z,63.35
2023-04-18T22:48:47.468Z,63.47
2023-04-18T22:51:29.755Z,63.35
2023-04-18T22:54:09.123Z,63.42
2023-04-18T22:56:48.356Z,63.40
2023-04-18T22:59:27.834Z,63.54
2023-04-18T23:02:12.321Z,63.43
2023-04-18T23:04:51.923Z,63.48
2023-04-18T23:07:31.245Z,63.75
2023-04-18T23:10:12.894Z,63.69
2023-04-18T23:12:52.170Z,63.42
2023-04-18T23:15:31.797Z,63.21
2023-04-18T23:18:16.213Z,63.63
2023-04-18T23:20:55.466Z,63.85
2023-04-18T23:23:34.740Z,63.70
2023-04-18T23:26:20.259Z,64.01
2023-04-18T23:28:59.848Z,64.07
2023-04-18T23:31:39.171Z,63.97
2023-04-18T23:34:23.565Z,63.99
2023-04-18T23:37:02.804Z,63.98
2023-04-18T23:39:42.180Z,63.95
2023-04-18T23:42:21.398Z,63.92
2023-04-18T23:45:00.897Z,63.77
2023-04-18T23:47:40.320Z,63.75
2023-04-18T23:50:24.946Z,63.90
2023-04-18T23:53:04.220Z,64.40
2023-04-18T23:55:43.481Z,64.01
2023-04-18T23:58:23.036Z,63.85
